Time;durP1;ratioP1;P1;durP2;ratioP2;P2;SDS_P1;SDS_P2;PMS_P1;PMS_P2;Temp;Humidity;BMP_temperature;BMP_pressure;BME280_temperature;BME280_humidity;BME280_pressure;Samples;Min_cycle;Max_cycle;Signal;HPM_P1;HPM_P2
2023/06/02 00:01:32;;;;;;;7.00;2.35;;;;;;;;;;5046199;28;20222;-21
2023/06/02 00:04:01;;;;;;;6.90;2.65;;;;;;;;;;5040063;28;20234;-21
2023/06/02 00:06:32;;;;;;;7.43;2.15;;;;;;;;;;5046409;28;20241;-19
2023/06/02 00:09:03;;;;;;;5.78;2.45;;;;;;;;;;5048142;28;20317;-19
2023/06/02 00:11:34;;;;;;;7.80;2.35;;;;;;;;;;5034286;28;20680;-19
2023/06/02 00:14:04;;;;;;;8.05;2.28;;;;;;;;;;5037232;28;20313;-19
2023/06/02 00:16:33;;;;;;;10.07;2.63;;;;;;;;;;5043849;28;20238;-19
2023/06/02 00:19:01;;;;;;;8.40;2.35;;;;;;;;;;5037974;28;20235;-19
2023/06/02 00:21:28;;;;;;;12.40;2.55;;;;;;;;;;5036219;28;20234;-19
2023/06/02 00:23:56;;;;;;;12.50;3.05;;;;;;;;;;5036113;28;20233;-19
2023/06/02 00:26:23;;;;;;;10.80;2.40;;;;;;;;;;5038875;28;20751;-19
2023/06/02 00:28:51;;;;;;;11.80;2.40;;;;;;;;;;5050703;28;20229;-19
2023/06/02 00:31:20;;;;;;;6.07;2.55;;;;;;;;;;5050599;28;20245;-18
2023/06/02 00:33:47;;;;;;;6.00;2.50;;;;;;;;;;5050433;28;20233;-19
2023/06/02 00:36:15;;;;;;;6.47;2.50;;;;;;;;;;5051222;28;20340;-19
2023/06/02 00:38:42;;;;;;;7.10;2.97;;;;;;;;;;5050054;28;20237;-19
2023/06/02 00:41:10;;;;;;;7.07;2.35;;;;;;;;;;5050284;28;20226;-20
2023/06/02 00:43:37;;;;;;;8.38;2.25;;;;;;;;;;5050698;28;20660;-19
2023/06/02 00:46:05;;;;;;;11.55;3.00;;;;;;;;;;5049990;28;20238;-20
2023/06/02 00:48:34;;;;;;;15.93;2.47;;;;;;;;;;5050983;28;20231;-19
2023/06/02 00:51:02;;;;;;;9.63;2.90;;;;;;;;;;5050561;28;20300;-19
2023/06/02 00:53:30;;;;;;;9.38;2.35;;;;;;;;;;5050508;28;20706;-19
2023/06/02 00:55:57;;;;;;;6.53;2.15;;;;;;;;;;5050479;28;20752;-19
2023/06/02 00:58:25;;;;;;;7.05;2.10;;;;;;;;;;5050439;28;20241;-19
2023/06/02 01:00:54;;;;;;;8.77;2.65;;;;;;;;;;5051008;28;20230;-19
2023/06/02 01:03:25;;;;;;;7.40;2.45;;;;;;;;;;5050809;28;20634;-19
2023/06/02 01:05:55;;;;;;;6.50;2.55;;;;;;;;;;5048869;28;20249;-20
2023/06/02 01:08:22;;;;;;;5.88;2.42;;;;;;;;;;5044777;28;20230;-19
2023/06/02 01:10:50;;;;;;;8.52;2.83;;;;;;;;;;5050393;28;20242;-19
2023/06/02 01:13:17;;;;;;;13.73;2.65;;;;;;;;;;5049864;28;20315;-19
2023/06/02 01:15:45;;;;;;;6.72;2.65;;;;;;;;;;5050638;28;20245;-19
2023/06/02 01:18:14;;;;;;;6.07;2.55;;;;;;;;;;5046112;28;20322;-19
2023/06/02 01:20:44;;;;;;;7.15;2.30;;;;;;;;;;5035173;28;20310;-19
2023/06/02 01:23:15;;;;;;;7.18;2.40;;;;;;;;;;5032343;28;20235;-19
2023/06/02 01:25:44;;;;;;;5.85;2.88;;;;;;;;;;5042515;28;20744;-19
2023/06/02 01:28:12;;;;;;;10.95;2.42;;;;;;;;;;5047701;28;20241;-19
2023/06/02 01:30:39;;;;;;;9.60;2.83;;;;;;;;;;5036143;28;20238;-19
2023/06/02 01:33:08;;;;;;;6.72;2.45;;;;;;;;;;5040424;28;20230;-19
2023/06/02 01:35:37;;;;;;;9.52;2.60;;;;;;;;;;5044527;28;20230;-19
2023/06/02 01:38:05;;;;;;;6.47;2.45;;;;;;;;;;5038193;28;20230;-19
2023/06/02 01:40:33;;;;;;;7.47;3.05;;;;;;;;;;5048913;28;20275;-19
2023/06/02 01:43:02;;;;;;;5.05;2.13;;;;;;;;;;5036255;28;20241;-19
2023/06/02 01:45:30;;;;;;;7.70;2.75;;;;;;;;;;5050307;28;20982;-19
2023/06/02 01:48:01;;;;;;;7.32;2.53;;;;;;;;;;5048881;28;20226;-19
2023/06/02 01:50:29;;;;;;;7.55;2.92;;;;;;;;;;5050144;28;20244;-19
2023/06/02 01:52:56;;;;;;;8.27;2.50;;;;;;;;;;5049306;28;20237;-19
2023/06/02 01:55:24;;;;;;;7.20;2.42;;;;;;;;;;5049362;28;20234;-19
2023/06/02 01:57:51;;;;;;;4.75;2.50;;;;;;;;;;5047544;28;20242;-19
2023/06/02 02:00:21;;;;;;;8.93;3.10;;;;;;;;;;5037926;28;20258;-18
2023/06/02 02:02:48;;;;;;;9.07;2.65;;;;;;;;;;5044040;28;20671;-19
2023/06/02 02:05:16;;;;;;;6.15;2.67;;;;;;;;;;5049548;28;20745;-20
2023/06/02 02:07:44;;;;;;;5.50;2.60;;;;;;;;;;5049561;28;20272;-19
2023/06/02 02:10:11;;;;;;;6.03;2.45;;;;;;;;;;5048598;28;20242;-19
2023/06/02 02:12:39;;;;;;;6.75;2.40;;;;;;;;;;5049480;28;20241;-19
2023/06/02 02:15:07;;;;;;;6.70;3.10;;;;;;;;;;5044625;28;20305;-19
2023/06/02 02:17:36;;;;;;;6.55;2.90;;;;;;;;;;5039742;28;20275;-19
2023/06/02 02:20:05;;;;;;;7.22;2.97;;;;;;;;;;5049035;28;20265;-19
2023/06/02 02:22:33;;;;;;;5.72;2.22;;;;;;;;;;5049579;28;20353;-19
2023/06/02 02:25:00;;;;;;;8.25;2.40;;;;;;;;;;5047943;28;20233;-19
2023/06/02 02:27:28;;;;;;;6.32;2.70;;;;;;;;;;5041750;28;20223;-19
2023/06/02 02:29:57;;;;;;;6.38;2.70;;;;;;;;;;5042040;28;20718;-19
2023/06/02 02:32:24;;;;;;;6.88;2.85;;;;;;;;;;5049298;28;20319;-19
2023/06/02 02:34:53;;;;;;;5.32;2.88;;;;;;;;;;5048620;28;20324;-19
2023/06/02 02:37:21;;;;;;;6.53;2.55;;;;;;;;;;5048421;28;20317;-19
2023/06/02 02:40:08;;;;;;;7.03;2.60;;;;;;;;;;5048898;28;20241;-19
2023/06/02 02:42:36;;;;;;;5.47;2.30;;;;;;;;;;5035164;28;20658;-19
2023/06/02 02:45:04;;;;;;;7.25;2.90;;;;;;;;;;5047861;28;20230;-19
2023/06/02 02:47:31;;;;;;;7.63;2.78;;;;;;;;;;5048432;28;20230;-19
2023/06/02 02:50:02;;;;;;;6.45;2.55;;;;;;;;;;5048345;28;20260;-19
2023/06/02 02:52:30;;;;;;;7.18;3.03;;;;;;;;;;5034510;28;20341;-19
2023/06/02 02:54:57;;;;;;;8.57;2.63;;;;;;;;;;5048758;28;20248;-19
2023/06/02 02:57:25;;;;;;;6.28;2.38;;;;;;;;;;5048978;28;20394;-19
2023/06/02 02:59:52;;;;;;;7.53;2.63;;;;;;;;;;5047876;28;20285;-19
2023/06/02 03:02:20;;;;;;;8.48;2.13;;;;;;;;;;5049126;28;20237;-19
2023/06/02 03:04:47;;;;;;;5.82;2.72;;;;;;;;;;5048564;28;20308;-19
2023/06/02 03:07:16;;;;;;;4.57;2.40;;;;;;;;;;5048039;28;20313;-19
2023/06/02 03:09:44;;;;;;;7.28;2.25;;;;;;;;;;5048298;28;20781;-19
2023/06/02 03:12:11;;;;;;;7.03;2.67;;;;;;;;;;5047879;28;20356;-19
2023/06/02 03:14:39;;;;;;;5.18;2.53;;;;;;;;;;5048708;28;20229;-19
2023/06/02 03:17:07;;;;;;;5.97;2.40;;;;;;;;;;5048740;28;20804;-19
2023/06/02 03:19:35;;;;;;;4.68;2.28;;;;;;;;;;5047661;28;20234;-19
2023/06/02 03:22:03;;;;;;;5.65;2.60;;;;;;;;;;5048302;28;20737;-19
2023/06/02 03:24:34;;;;;;;5.13;2.58;;;;;;;;;;5048831;28;20320;-19
2023/06/02 03:27:03;;;;;;;6.50;2.40;;;;;;;;;;5043754;28;20222;-20
2023/06/02 03:29:31;;;;;;;6.80;2.63;;;;;;;;;;5038835;28;20630;-19
2023/06/02 03:32:00;;;;;;;6.18;2.50;;;;;;;;;;5047903;28;20238;-19
2023/06/02 03:34:29;;;;;;;5.50;2.13;;;;;;;;;;5047415;28;20284;-19
2023/06/02 03:37:01;;;;;;;6.30;2.83;;;;;;;;;;5033962;28;20239;-19
2023/06/02 03:39:28;;;;;;;9.13;2.60;;;;;;;;;;5048461;28;20622;-19
2023/06/02 03:41:57;;;;;;;9.10;2.67;;;;;;;;;;5032431;28;20265;-20
2023/06/02 03:44:25;;;;;;;7.47;2.50;;;;;;;;;;5041461;28;20403;-20
2023/06/02 03:46:52;;;;;;;5.35;2.10;;;;;;;;;;5041024;28;20234;-19
2023/06/02 03:49:20;;;;;;;5.15;2.28;;;;;;;;;;5047788;28;20234;-20
2023/06/02 03:51:48;;;;;;;5.88;2.22;;;;;;;;;;5047424;28;20319;-20
2023/06/02 03:54:15;;;;;;;8.48;2.60;;;;;;;;;;5029460;28;20231;-20
2023/06/02 03:56:42;;;;;;;5.05;1.85;;;;;;;;;;5028395;28;20314;-20
2023/06/02 03:59:11;;;;;;;7.10;2.55;;;;;;;;;;5031125;28;20284;-19
2023/06/02 04:01:39;;;;;;;5.95;2.05;;;;;;;;;;5037206;28;20235;-20
2023/06/02 04:04:06;;;;;;;8.15;2.28;;;;;;;;;;5032431;28;20383;-19
2023/06/02 04:06:34;;;;;;;7.63;2.33;;;;;;;;;;5035455;28;20337;-20
2023/06/02 04:09:01;;;;;;;11.13;2.72;;;;;;;;;;5030833;28;20230;-19
2023/06/02 04:11:29;;;;;;;5.93;2.17;;;;;;;;;;5032834;28;20245;-20
2023/06/02 04:13:57;;;;;;;5.95;2.65;;;;;;;;;;5033293;28;20362;-19
2023/06/02 04:16:26;;;;;;;6.45;2.08;;;;;;;;;;5028658;28;20710;-20
2023/06/02 04:18:53;;;;;;;7.65;2.47;;;;;;;;;;5028026;28;20233;-19
2023/06/02 04:21:21;;;;;;;6.70;2.15;;;;;;;;;;5038684;28;20231;-20
2023/06/02 04:23:48;;;;;;;8.57;2.67;;;;;;;;;;5032896;28;20654;-20
2023/06/02 04:26:16;;;;;;;6.00;2.40;;;;;;;;;;5028763;28;20622;-20
2023/06/02 04:28:43;;;;;;;7.43;2.40;;;;;;;;;;5031664;28;20222;-20
2023/06/02 04:31:11;;;;;;;4.57;2.10;;;;;;;;;;5047122;28;20363;-19
2023/06/02 04:33:41;;;;;;;7.13;2.35;;;;;;;;;;5047906;28;20328;-20
2023/06/02 04:36:10;;;;;;;8.02;2.40;;;;;;;;;;5047781;28;20238;-20
2023/06/02 04:38:37;;;;;;;8.13;2.30;;;;;;;;;;5046909;28;20777;-18
2023/06/02 04:41:07;;;;;;;7.30;2.20;;;;;;;;;;5047479;28;20651;-19
2023/06/02 04:43:35;;;;;;;5.93;2.20;;;;;;;;;;5047275;28;20241;-19
2023/06/02 04:46:06;;;;;;;10.43;2.40;;;;;;;;;;5033731;28;20680;-19
2023/06/02 04:48:34;;;;;;;6.75;2.40;;;;;;;;;;5047252;28;20226;-20
2023/06/02 04:51:03;;;;;;;9.80;2.33;;;;;;;;;;5027021;28;20239;-19
2023/06/02 04:53:30;;;;;;;5.57;1.90;;;;;;;;;;5027474;28;20304;-20
2023/06/02 04:55:58;;;;;;;6.57;2.22;;;;;;;;;;5027143;28;20353;-19
2023/06/02 04:58:26;;;;;;;6.07;1.98;;;;;;;;;;5029105;28;20266;-20
2023/06/02 05:00:53;;;;;;;5.25;2.40;;;;;;;;;;5043840;28;20312;-19
2023/06/02 05:03:21;;;;;;;7.15;2.55;;;;;;;;;;5039401;28;20255;-19
2023/06/02 05:05:48;;;;;;;6.70;2.28;;;;;;;;;;5048277;28;20240;-19
2023/06/02 05:08:17;;;;;;;4.93;2.03;;;;;;;;;;5036031;28;20227;-19
2023/06/02 05:10:45;;;;;;;6.13;2.20;;;;;;;;;;5036362;28;20277;-19
2023/06/02 05:13:14;;;;;;;8.57;2.30;;;;;;;;;;5042610;28;20277;-20
2023/06/02 05:15:41;;;;;;;7.50;2.35;;;;;;;;;;5042562;28;20312;-19
2023/06/02 05:18:09;;;;;;;6.03;1.80;;;;;;;;;;5050170;28;20617;-20
2023/06/02 05:20:36;;;;;;;6.43;2.40;;;;;;;;;;5040019;28;20356;-20
2023/06/02 05:23:04;;;;;;;8.45;2.60;;;;;;;;;;5041047;28;20244;-20
2023/06/02 05:25:32;;;;;;;6.72;2.15;;;;;;;;;;5036147;28;20927;-19
2023/06/02 05:28:00;;;;;;;9.30;2.55;;;;;;;;;;5045845;28;20692;-19
2023/06/02 05:30:28;;;;;;;9.98;2.03;;;;;;;;;;5050080;28;20234;-19
2023/06/02 05:32:55;;;;;;;6.10;2.05;;;;;;;;;;5049269;28;20241;-20
2023/06/02 05:35:24;;;;;;;9.52;2.65;;;;;;;;;;5050429;28;20230;-19
2023/06/02 05:37:51;;;;;;;8.20;2.42;;;;;;;;;;5049481;28;20233;-19
2023/06/02 05:40:19;;;;;;;10.25;2.47;;;;;;;;;;5049272;28;20297;-19
2023/06/02 05:42:48;;;;;;;8.10;2.55;;;;;;;;;;5050102;28;20739;-20
2023/06/02 05:45:15;;;;;;;12.57;3.13;;;;;;;;;;5049950;28;20234;-19
2023/06/02 05:47:43;;;;;;;10.85;2.78;;;;;;;;;;5036274;28;20226;-20
2023/06/02 05:50:11;;;;;;;9.63;2.60;;;;;;;;;;5029840;28;20245;-20
2023/06/02 05:52:39;;;;;;;10.25;2.42;;;;;;;;;;5037266;28;20277;-20
2023/06/02 05:55:06;;;;;;;8.80;2.17;;;;;;;;;;5042421;28;20657;-20
2023/06/02 05:57:36;;;;;;;9.32;2.58;;;;;;;;;;5040941;28;20289;-19
2023/06/02 06:00:06;;;;;;;9.55;2.42;;;;;;;;;;5036091;28;20301;-20
2023/06/02 06:02:33;;;;;;;8.05;2.30;;;;;;;;;;5029390;28;20234;-20
2023/06/02 06:05:01;;;;;;;9.63;2.10;;;;;;;;;;5038013;28;20234;-19
2023/06/02 06:07:28;;;;;;;8.13;2.28;;;;;;;;;;5039166;28;20235;-19
2023/06/02 06:09:56;;;;;;;5.95;1.90;;;;;;;;;;5041651;28;20293;-19
2023/06/02 06:12:23;;;;;;;6.85;2.15;;;;;;;;;;5034984;28;20226;-20
2023/06/02 06:14:51;;;;;;;6.90;2.10;;;;;;;;;;5037193;28;20262;-19
2023/06/02 06:17:19;;;;;;;5.38;1.95;;;;;;;;;;5036214;28;20235;-19
2023/06/02 06:19:47;;;;;;;6.18;1.98;;;;;;;;;;5033179;28;20238;-19
2023/06/02 06:22:14;;;;;;;5.30;1.98;;;;;;;;;;5036333;28;20245;-20
2023/06/02 06:24:42;;;;;;;8.48;2.30;;;;;;;;;;5029719;28;20237;-19
2023/06/02 06:27:09;;;;;;;7.35;1.88;;;;;;;;;;5029495;28;20234;-20
2023/06/02 06:29:37;;;;;;;8.13;1.65;;;;;;;;;;5029581;28;20245;-20
2023/06/02 06:32:06;;;;;;;6.82;2.28;;;;;;;;;;5041880;28;20256;-20
2023/06/02 06:34:35;;;;;;;4.68;2.05;;;;;;;;;;5030318;28;21046;-19
2023/06/02 06:37:03;;;;;;;6.32;2.42;;;;;;;;;;5031222;28;20274;-19
2023/06/02 06:39:31;;;;;;;8.88;2.35;;;;;;;;;;5032531;28;20235;-19
2023/06/02 06:41:59;;;;;;;8.57;2.20;;;;;;;;;;5045029;28;20246;-19
2023/06/02 06:44:26;;;;;;;14.02;2.05;;;;;;;;;;5046816;28;20234;-19
2023/06/02 06:46:54;;;;;;;10.85;2.35;;;;;;;;;;5035924;28;20285;-20
2023/06/02 06:49:21;;;;;;;14.52;2.63;;;;;;;;;;5030706;28;20235;-19
2023/06/02 06:51:50;;;;;;;11.52;2.20;;;;;;;;;;5029984;28;20308;-19
2023/06/02 06:54:18;;;;;;;7.57;2.00;;;;;;;;;;5029928;28;20333;-20
2023/06/02 06:56:46;;;;;;;6.88;2.40;;;;;;;;;;5033567;28;20238;-19
2023/06/02 06:59:13;;;;;;;10.88;2.50;;;;;;;;;;5033227;28;20371;-19
2023/06/02 07:01:43;;;;;;;6.95;2.70;;;;;;;;;;5042806;28;20321;-20
2023/06/02 07:04:11;;;;;;;4.97;1.73;;;;;;;;;;5035014;28;20259;-20
2023/06/02 07:06:38;;;;;;;11.20;2.70;;;;;;;;;;5040770;28;21127;-20
2023/06/02 07:09:08;;;;;;;9.80;2.22;;;;;;;;;;5037001;28;20284;-19
2023/06/02 07:11:36;;;;;;;7.60;2.17;;;;;;;;;;5034053;28;20234;-20
2023/06/02 07:14:04;;;;;;;9.00;2.50;;;;;;;;;;5045115;28;20234;-19
2023/06/02 07:16:45;;;;;;;8.82;2.10;;;;;;;;;;5033959;28;20257;-20
2023/06/02 07:19:12;;;;;;;4.80;2.15;;;;;;;;;;5040081;28;20345;-19
2023/06/02 07:21:40;;;;;;;7.50;2.40;;;;;;;;;;5035464;28;20726;-20
2023/06/02 07:24:09;;;;;;;8.32;2.78;;;;;;;;;;5046743;28;20233;-20
2023/06/02 07:26:36;;;;;;;7.32;2.13;;;;;;;;;;5037006;28;20230;-20
2023/06/02 07:29:04;;;;;;;7.35;2.40;;;;;;;;;;5035411;28;20688;-19
2023/06/02 07:31:31;;;;;;;8.93;2.47;;;;;;;;;;5047103;28;20296;-19
2023/06/02 07:33:59;;;;;;;11.25;2.65;;;;;;;;;;5037070;28;20235;-19
2023/06/02 07:36:26;;;;;;;10.73;2.08;;;;;;;;;;5035403;28;20272;-19
2023/06/02 07:38:54;;;;;;;9.10;2.40;;;;;;;;;;5042547;28;20266;-20
2023/06/02 07:41:23;;;;;;;10.40;2.63;;;;;;;;;;5045335;28;20317;-19
2023/06/02 07:43:50;;;;;;;8.80;2.50;;;;;;;;;;5045173;28;20246;-19
2023/06/02 07:46:18;;;;;;;9.68;2.47;;;;;;;;;;5033614;28;20770;-19
2023/06/02 07:48:45;;;;;;;10.98;2.13;;;;;;;;;;5038518;28;20441;-20
2023/06/02 07:51:13;;;;;;;9.32;2.22;;;;;;;;;;5047899;28;20245;-19
2023/06/02 07:53:40;;;;;;;11.00;2.30;;;;;;;;;;5042310;28;20678;-19
2023/06/02 07:56:08;;;;;;;7.13;2.75;;;;;;;;;;5037809;28;20246;-20
2023/06/02 07:58:37;;;;;;;10.88;3.20;;;;;;;;;;5034858;28;20238;-20
2023/06/02 08:01:04;;;;;;;8.90;2.72;;;;;;;;;;5029242;28;20691;-19
2023/06/02 08:03:32;;;;;;;9.27;2.40;;;;;;;;;;5028320;28;20240;-19
2023/06/02 08:06:00;;;;;;;12.45;2.58;;;;;;;;;;5027866;28;20249;-20
2023/06/02 08:08:28;;;;;;;7.15;2.38;;;;;;;;;;5039516;28;20230;-19
2023/06/02 08:10:57;;;;;;;9.30;2.20;;;;;;;;;;5037052;28;20320;-20
2023/06/02 08:13:24;;;;;;;5.68;2.38;;;;;;;;;;5040037;28;20226;-20
2023/06/02 08:15:54;;;;;;;6.57;2.35;;;;;;;;;;5042660;28;20792;-21
2023/06/02 08:18:41;;;;;;;5.35;2.00;;;;;;;;;;5040164;28;20230;-19
2023/06/02 08:21:09;;;;;;;10.18;2.58;;;;;;;;;;5036287;28;20227;-19
2023/06/02 08:23:37;;;;;;;13.38;2.65;;;;;;;;;;5026578;28;20235;-20
2023/06/02 08:26:04;;;;;;;7.63;2.38;;;;;;;;;;5027091;28;20258;-19
2023/06/02 08:28:33;;;;;;;7.57;2.05;;;;;;;;;;5043235;28;20282;-20
2023/06/02 08:31:04;;;;;;;13.95;3.10;;;;;;;;;;5041453;28;20230;-19
2023/06/02 08:33:33;;;;;;;9.65;2.67;;;;;;;;;;5050000;28;20230;-19
2023/06/02 08:36:01;;;;;;;8.80;2.47;;;;;;;;;;5050464;28;20249;-19
2023/06/02 08:38:29;;;;;;;8.48;2.47;;;;;;;;;;5051495;28;20230;-19
2023/06/02 08:40:57;;;;;;;8.30;2.50;;;;;;;;;;5050934;28;20546;-20
2023/06/02 08:43:25;;;;;;;10.07;2.90;;;;;;;;;;5050373;28;20245;-19
2023/06/02 08:45:52;;;;;;;7.80;2.75;;;;;;;;;;5051125;28;20313;-19
2023/06/02 08:48:21;;;;;;;11.27;3.08;;;;;;;;;;5051116;28;20226;-19
2023/06/02 08:50:49;;;;;;;11.27;3.30;;;;;;;;;;5049834;28;20234;-19
2023/06/02 08:53:18;;;;;;;9.20;2.45;;;;;;;;;;5050887;28;20245;-20
2023/06/02 08:55:48;;;;;;;6.85;2.13;;;;;;;;;;5048177;28;20319;-20
2023/06/02 08:58:15;;;;;;;14.13;2.60;;;;;;;;;;5034769;28;20248;-19
2023/06/02 09:00:42;;;;;;;8.63;2.78;;;;;;;;;;5009850;28;81476;-20
2023/06/02 09:03:10;;;;;;;10.68;2.75;;;;;;;;;;5017157;28;76266;-20
2023/06/02 09:05:56;;;;;;;18.15;3.25;;;;;;;;;;5029182;28;20238;-35
2023/06/02 09:08:23;;;;;;;8.35;2.35;;;;;;;;;;5030617;28;20227;-43
2023/06/02 09:10:51;;;;;;;9.32;2.80;;;;;;;;;;5028743;28;20277;-23
2023/06/02 09:13:31;;;;;;;6.57;2.78;;;;;;;;;;5029099;28;20231;-21
2023/06/02 09:15:59;;;;;;;12.77;3.03;;;;;;;;;;5025946;28;67070;-21
2023/06/02 09:18:27;;;;;;;8.95;2.90;;;;;;;;;;5029217;28;20231;-22
2023/06/02 09:21:41;;;;;;;9.82;2.60;;;;;;;;;;5051071;27;20684;-22
2023/06/02 09:24:09;;;;;;;10.30;3.15;;;;;;;;;;5041529;28;43018;-22
2023/06/02 09:26:47;;;;;;;7.47;2.63;;;;;;;;;;5038274;28;40429;-22
2023/06/02 09:29:15;;;;;;;9.73;2.55;;;;;;;;;;5040432;28;43473;-23
2023/06/02 09:31:45;;;;;;;8.40;2.53;;;;;;;;;;5041719;28;42794;-22
2023/06/02 09:34:13;;;;;;;7.80;2.50;;;;;;;;;;5042110;28;40168;-23
2023/06/02 09:36:42;;;;;;;8.40;2.70;;;;;;;;;;5042269;28;43153;-24
2023/06/02 09:39:11;;;;;;;6.47;2.40;;;;;;;;;;5040894;28;44301;-23
2023/06/02 09:41:39;;;;;;;9.20;2.20;;;;;;;;;;5042702;28;40269;-22
2023/06/02 09:44:11;;;;;;;9.52;2.75;;;;;;;;;;5041793;28;43610;-22
2023/06/02 09:46:39;;;;;;;8.73;2.90;;;;;;;;;;5038905;28;41547;-22
2023/06/02 09:49:08;;;;;;;6.90;2.60;;;;;;;;;;5041200;28;42627;-21
2023/06/02 09:51:37;;;;;;;7.70;2.20;;;;;;;;;;5041971;28;43031;-21
2023/06/02 09:54:07;;;;;;;9.90;2.47;;;;;;;;;;5040429;28;41594;-43
2023/06/02 09:56:36;;;;;;;8.02;2.83;;;;;;;;;;5043087;28;41999;-38
2023/06/02 09:59:05;;;;;;;13.25;2.90;;;;;;;;;;5041846;28;43425;-39
2023/06/02 10:01:33;;;;;;;13.63;3.15;;;;;;;;;;5055743;28;38884;-35
2023/06/02 10:04:02;;;;;;;13.57;3.03;;;;;;;;;;5039926;28;43061;-39
2023/06/02 10:06:35;;;;;;;17.67;3.38;;;;;;;;;;5042679;28;41022;-40
2023/06/02 10:09:09;;;;;;;9.63;2.85;;;;;;;;;;5038762;28;43212;-44
2023/06/02 10:11:40;;;;;;;10.32;2.72;;;;;;;;;;5026184;28;43022;-43
2023/06/02 10:14:15;;;;;;;12.85;3.35;;;;;;;;;;5041843;28;40420;-43
2023/06/02 10:16:53;;;;;;;20.08;3.30;;;;;;;;;;5029834;28;43366;-43
2023/06/02 10:19:39;;;;;;;10.25;3.15;;;;;;;;;;5038933;28;44987;-44
2023/06/02 10:22:12;;;;;;;11.57;2.95;;;;;;;;;;5041376;28;41394;-42
2023/06/02 10:24:45;;;;;;;11.75;3.00;;;;;;;;;;5039691;28;42747;-43
2023/06/02 10:27:17;;;;;;;12.25;3.03;;;;;;;;;;5038848;28;44125;-42
2023/06/02 10:29:46;;;;;;;19.40;3.88;;;;;;;;;;5038503;28;42400;-41
2023/06/02 10:32:21;;;;;;;11.52;2.97;;;;;;;;;;5032890;28;43534;-41
2023/06/02 10:34:49;;;;;;;9.68;3.00;;;;;;;;;;5040846;28;41237;-38
2023/06/02 10:37:17;;;;;;;14.77;3.28;;;;;;;;;;5027391;28;43096;-44
2023/06/02 10:39:54;;;;;;;15.52;3.25;;;;;;;;;;5028557;28;43025;-42
2023/06/02 10:42:23;;;;;;;15.07;2.95;;;;;;;;;;5026358;28;40678;-43
2023/06/02 10:44:52;;;;;;;12.52;3.08;;;;;;;;;;5027417;28;43288;-32
2023/06/02 10:47:35;;;;;;;18.60;3.45;;;;;;;;;;5027689;28;43320;-35
2023/06/02 10:50:07;;;;;;;15.23;2.95;;;;;;;;;;5026552;28;40554;-35
2023/06/02 10:53:14;;;;;;;18.48;3.63;;;;;;;;;;5026218;28;43666;-33
2023/06/02 10:55:44;;;;;;;16.00;3.63;;;;;;;;;;4973524;28;60241;-34
2023/06/02 10:58:14;;;;;;;11.65;3.13;;;;;;;;;;4979410;28;42286;-35
2023/06/02 11:00:45;;;;;;;13.70;3.28;;;;;;;;;;4998934;28;44124;-34
2023/06/02 11:03:29;;;;;;;8.40;3.13;;;;;;;;;;5025303;28;40449;-37
2023/06/02 11:06:17;;;;;;;9.15;3.10;;;;;;;;;;5023348;28;43245;-38
2023/06/02 11:08:47;;;;;;;9.75;3.35;;;;;;;;;;5021878;28;43523;-38
2023/06/02 11:11:34;;;;;;;13.18;2.92;;;;;;;;;;5025737;28;40631;-40
2023/06/02 11:14:03;;;;;;;11.75;3.05;;;;;;;;;;5026326;28;41672;-40
2023/06/02 11:16:31;;;;;;;8.85;2.65;;;;;;;;;;5028315;28;40207;-36
2023/06/02 11:19:00;;;;;;;10.82;3.08;;;;;;;;;;5027260;28;42459;-40
2023/06/02 11:21:28;;;;;;;10.10;3.53;;;;;;;;;;5027730;28;44013;-39
2023/06/02 11:23:56;;;;;;;7.30;3.10;;;;;;;;;;5027798;28;40408;-38
2023/06/02 11:26:25;;;;;;;6.85;2.95;;;;;;;;;;5027493;28;42778;-39
2023/06/02 11:28:53;;;;;;;10.23;2.53;;;;;;;;;;5028187;28;44062;-41
2023/06/02 11:31:22;;;;;;;7.97;2.90;;;;;;;;;;5027041;28;40730;-41
2023/06/02 11:33:51;;;;;;;10.80;2.78;;;;;;;;;;5028325;28;43608;-40
2023/06/02 11:36:25;;;;;;;8.25;3.15;;;;;;;;;;5028725;28;33541;-41
2023/06/02 11:39:01;;;;;;;5.75;3.13;;;;;;;;;;5026698;28;43167;-40
2023/06/02 11:41:29;;;;;;;7.53;2.30;;;;;;;;;;5024677;28;44060;-41
2023/06/02 11:44:03;;;;;;;6.65;3.08;;;;;;;;;;5026546;28;40272;-41
2023/06/02 11:46:32;;;;;;;6.75;2.85;;;;;;;;;;5025568;28;41374;-41
2023/06/02 11:49:00;;;;;;;7.05;3.00;;;;;;;;;;5027520;28;43812;-37
2023/06/02 11:51:30;;;;;;;9.98;2.50;;;;;;;;;;5025290;28;38552;-39
2023/06/02 11:53:58;;;;;;;9.20;3.10;;;;;;;;;;5026173;28;43725;-41
2023/06/02 11:56:26;;;;;;;8.73;3.08;;;;;;;;;;5026802;28;42787;-39
2023/06/02 11:58:54;;;;;;;8.23;3.00;;;;;;;;;;5027444;28;42790;-36
2023/06/02 12:01:23;;;;;;;7.70;2.95;;;;;;;;;;5026418;28;44007;-40
2023/06/02 12:04:04;;;;;;;8.20;3.17;;;;;;;;;;5027651;28;41263;-41
2023/06/02 12:06:32;;;;;;;6.18;2.42;;;;;;;;;;5027274;28;42562;-40
2023/06/02 12:09:09;;;;;;;6.72;2.40;;;;;;;;;;5027515;28;44380;-42
2023/06/02 12:11:37;;;;;;;5.40;2.72;;;;;;;;;;5028057;28;41189;-40
2023/06/02 12:14:06;;;;;;;6.80;2.83;;;;;;;;;;5026702;28;42391;-39
2023/06/02 12:16:34;;;;;;;5.57;2.47;;;;;;;;;;5028335;28;44155;-41
2023/06/02 12:19:16;;;;;;;8.55;2.92;;;;;;;;;;5027850;28;40812;-40
2023/06/02 12:21:45;;;;;;;10.35;3.13;;;;;;;;;;5010803;28;42942;-39
2023/06/02 12:24:28;;;;;;;7.80;2.85;;;;;;;;;;5027647;28;40309;-41
2023/06/02 12:26:55;;;;;;;7.63;2.83;;;;;;;;;;5027822;28;42550;-40
2023/06/02 12:29:24;;;;;;;6.15;3.10;;;;;;;;;;5026963;28;43436;-37
2023/06/02 12:31:56;;;;;;;6.50;2.88;;;;;;;;;;5027131;28;41267;-39
2023/06/02 12:34:25;;;;;;;6.60;3.05;;;;;;;;;;5027191;28;43434;-41
2023/06/02 12:36:53;;;;;;;5.93;3.03;;;;;;;;;;5026642;28;43017;-40
2023/06/02 12:39:21;;;;;;;7.22;2.95;;;;;;;;;;5027367;28;41060;-39
2023/06/02 12:41:49;;;;;;;7.00;2.67;;;;;;;;;;5026758;28;42368;-41
2023/06/02 12:44:17;;;;;;;5.05;3.15;;;;;;;;;;5012524;28;40368;-39
2023/06/02 12:46:45;;;;;;;7.20;2.58;;;;;;;;;;5027397;28;42712;-39
2023/06/02 12:49:13;;;;;;;5.75;2.85;;;;;;;;;;5025773;28;45070;-39
2023/06/02 12:51:43;;;;;;;8.45;3.00;;;;;;;;;;5027082;28;40405;-40
2023/06/02 12:54:11;;;;;;;5.93;3.03;;;;;;;;;;5026618;28;42673;-41
2023/06/02 12:56:39;;;;;;;7.47;3.67;;;;;;;;;;5024200;28;42589;-42
2023/06/02 12:59:11;;;;;;;9.77;3.85;;;;;;;;;;5024943;28;39598;-40
2023/06/02 13:01:40;;;;;;;6.90;3.22;;;;;;;;;;5022760;28;42638;-41
2023/06/02 13:04:09;;;;;;;8.38;3.33;;;;;;;;;;5040616;28;43305;-40
2023/06/02 13:06:37;;;;;;;13.02;3.90;;;;;;;;;;5026949;28;42556;-37
2023/06/02 13:09:06;;;;;;;10.75;3.60;;;;;;;;;;5026144;28;43798;-39
2023/06/02 13:11:34;;;;;;;10.80;4.03;;;;;;;;;;5025135;28;40521;-41
2023/06/02 13:14:02;;;;;;;12.77;3.80;;;;;;;;;;5025522;28;43096;-40
2023/06/02 13:16:31;;;;;;;8.55;3.55;;;;;;;;;;5026525;28;43912;-39
2023/06/02 13:18:59;;;;;;;13.13;3.55;;;;;;;;;;5025329;28;41008;-41
2023/06/02 13:21:27;;;;;;;9.48;4.22;;;;;;;;;;5024876;28;43901;-39
2023/06/02 13:23:57;;;;;;;10.10;3.50;;;;;;;;;;5024657;28;43003;-41
2023/06/02 13:26:27;;;;;;;12.68;4.03;;;;;;;;;;5026458;28;40134;-39
2023/06/02 13:28:55;;;;;;;8.98;3.35;;;;;;;;;;5025697;28;43827;-41
2023/06/02 13:31:23;;;;;;;10.10;3.45;;;;;;;;;;5023918;28;40456;-42
2023/06/02 13:33:51;;;;;;;11.65;3.90;;;;;;;;;;5026461;28;42777;-40
2023/06/02 13:36:19;;;;;;;11.65;3.55;;;;;;;;;;5024766;28;42368;-39
2023/06/02 13:38:47;;;;;;;7.78;3.45;;;;;;;;;;5026072;28;41694;-39
2023/06/02 13:41:15;;;;;;;10.63;3.90;;;;;;;;;;5025441;28;42625;-39
2023/06/02 13:43:45;;;;;;;13.60;3.30;;;;;;;;;;5024142;28;43343;-42
2023/06/02 13:46:13;;;;;;;7.00;3.40;;;;;;;;;;5025540;28;40856;-41
2023/06/02 13:48:41;;;;;;;8.93;3.47;;;;;;;;;;5025488;28;43069;-37
2023/06/02 13:51:09;;;;;;;11.70;3.10;;;;;;;;;;5023028;28;40787;-42
2023/06/02 13:53:37;;;;;;;10.13;3.13;;;;;;;;;;5026028;28;44241;-41
2023/06/02 13:56:05;;;;;;;9.43;3.53;;;;;;;;;;5025098;28;43375;-40
2023/06/02 13:58:36;;;;;;;8.45;3.38;;;;;;;;;;5025527;28;39960;-41
2023/06/02 14:01:06;;;;;;;8.35;2.83;;;;;;;;;;5024485;28;42485;-42
2023/06/02 14:03:34;;;;;;;12.65;3.28;;;;;;;;;;5025366;28;43640;-39
2023/06/02 14:06:02;;;;;;;8.07;3.47;;;;;;;;;;5023324;28;38675;-40
2023/06/02 14:08:31;;;;;;;13.30;3.30;;;;;;;;;;5029390;28;43242;-38
2023/06/02 14:10:59;;;;;;;9.85;3.50;;;;;;;;;;5028742;28;39824;-41
2023/06/02 14:13:27;;;;;;;7.50;3.10;;;;;;;;;;5027420;28;42784;-40
2023/06/02 14:15:55;;;;;;;10.77;3.30;;;;;;;;;;5028712;28;42776;-30
2023/06/02 14:18:24;;;;;;;6.07;2.97;;;;;;;;;;5030083;28;40395;-29
2023/06/02 14:20:52;;;;;;;12.10;4.28;;;;;;;;;;5028468;28;43748;-29
2023/06/02 14:23:20;;;;;;;16.08;3.83;;;;;;;;;;5029050;28;44019;-29
2023/06/02 14:25:48;;;;;;;18.60;3.63;;;;;;;;;;5028803;28;40058;-29
2023/06/02 14:28:16;;;;;;;7.97;3.08;;;;;;;;;;5028269;28;42294;-30
2023/06/02 14:30:44;;;;;;;11.55;3.80;;;;;;;;;;5027906;28;42196;-28
2023/06/02 14:33:12;;;;;;;13.95;3.75;;;;;;;;;;5026217;28;41086;-30
2023/06/02 14:35:42;;;;;;;13.32;3.55;;;;;;;;;;5028135;28;44376;-28
2023/06/02 14:38:10;;;;;;;8.82;3.38;;;;;;;;;;5028009;28;40269;-28
2023/06/02 14:40:38;;;;;;;12.98;3.30;;;;;;;;;;5028707;28;42514;-30
2023/06/02 14:43:06;;;;;;;10.45;3.20;;;;;;;;;;5027389;28;43343;-28
2023/06/02 14:45:36;;;;;;;9.55;3.80;;;;;;;;;;5027262;28;38905;-29
2023/06/02 14:48:04;;;;;;;8.23;2.88;;;;;;;;;;5028306;28;43248;-28
2023/06/02 14:50:32;;;;;;;8.07;2.80;;;;;;;;;;5027369;28;43375;-29
2023/06/02 14:53:02;;;;;;;7.28;3.30;;;;;;;;;;5028090;28;40442;-31